26°C Temp
18°C Dewpoint
61% Humidity
Temperature
10 KM/H
6 MPH
5 KTS
140°
South East

Wind Speed
Partly Cloudy
Conditions
Pressure 1009.82 (hPa) - 29.82 (in)
Visibility 6.0 (mi) - 9.7 (km)

Current Conditions
LIRQ
Location 70(km)
Metar :LIRQ 220450Z 14005KT 090V170 9999 FEW050 26/18 Q1010
Mon 22nd July 05:50 am

Airport
  Metar Aviation API Data Provided by https://www.checkwx.com/ PHP scripts by weather34.com ©2024